KHB104 UNKL-UHHH
Flight info
| Callsign | KHB104 |
|---|---|
| Flight time | 3h 55m |
| Altitude | 33000 |
| Route | ATRE2F ATREG W176 TISBU W174 KOTIB B151 BRT G363 GU N992 TORMA A946 IVADA IVAD6G |
| Aircraft | A320/M-VGDW/C |
Departure
| Time | 2026-05-07 06:35 |
|---|---|
| Airport | Krasnoyarsk International Airport (UNKL) |
Arrival
| Time | 2026-05-07 10:31 |
|---|---|
| Airport | Khabarovsk Novy Airport (UHHH) |
| Time | Latitude | Longitude | Altitude | Speed | Heading |
|---|---|---|---|---|---|
| 2026-05-07 06:08 | 56.17940 | 92.48531 | 951 ft | 0 kts | 22° |
| 2026-05-07 06:18 | 56.17932 | 92.48525 | 950 ft | 4 kts | 22° |
| 2026-05-07 06:19 | 56.17906 | 92.48507 | 950 ft | 4 kts | 22° |
| 2026-05-07 06:19 | 56.17882 | 92.48489 | 950 ft | 3 kts | 21° |
| 2026-05-07 06:19 | 56.17878 | 92.48486 | 950 ft | 0 kts | 21° |
| 2026-05-07 06:23 | 56.17880 | 92.48488 | 951 ft | 2 kts | 20° |
| 2026-05-07 06:24 | 56.17896 | 92.48489 | 949 ft | 5 kts | 354° |
| 2026-05-07 06:24 | 56.17918 | 92.48460 | 951 ft | 3 kts | 306° |
| 2026-05-07 06:24 | 56.17920 | 92.48403 | 951 ft | 8 kts | 253° |
| 2026-05-07 06:24 | 56.17867 | 92.48330 | 951 ft | 10 kts | 204° |
| 2026-05-07 06:25 | 56.17810 | 92.48289 | 951 ft | 8 kts | 200° |
| 2026-05-07 06:25 | 56.17762 | 92.48293 | 950 ft | 9 kts | 148° |
| 2026-05-07 06:25 | 56.17725 | 92.48450 | 951 ft | 18 kts | 111° |
| 2026-05-07 06:25 | 56.17670 | 92.48690 | 950 ft | 18 kts | 112° |
| 2026-05-07 06:26 | 56.17619 | 92.48900 | 951 ft | 19 kts | 113° |
| 2026-05-07 06:26 | 56.17567 | 92.49117 | 951 ft | 19 kts | 112° |
| 2026-05-07 06:26 | 56.17516 | 92.49340 | 951 ft | 20 kts | 112° |
| 2026-05-07 06:26 | 56.17461 | 92.49566 | 951 ft | 20 kts | 115° |
| 2026-05-07 06:27 | 56.17406 | 92.49798 | 951 ft | 20 kts | 114° |
| 2026-05-07 06:27 | 56.17350 | 92.50020 | 951 ft | 17 kts | 113° |
| 2026-05-07 06:27 | 56.17301 | 92.50219 | 951 ft | 18 kts | 112° |
| 2026-05-07 06:27 | 56.17255 | 92.50425 | 950 ft | 18 kts | 113° |
| 2026-05-07 06:28 | 56.17205 | 92.50631 | 951 ft | 18 kts | 111° |
| 2026-05-07 06:28 | 56.17156 | 92.50836 | 951 ft | 18 kts | 114° |
| 2026-05-07 06:28 | 56.17106 | 92.51045 | 951 ft | 18 kts | 112° |
| 2026-05-07 06:28 | 56.17055 | 92.51258 | 951 ft | 19 kts | 114° |
| 2026-05-07 06:29 | 56.17001 | 92.51477 | 951 ft | 19 kts | 114° |
| 2026-05-07 06:29 | 56.16957 | 92.51671 | 951 ft | 14 kts | 113° |
| 2026-05-07 06:29 | 56.16920 | 92.51826 | 951 ft | 13 kts | 113° |
| 2026-05-07 06:29 | 56.16879 | 92.51944 | 951 ft | 10 kts | 148° |
| 2026-05-07 06:30 | 56.16822 | 92.51983 | 951 ft | 8 kts | 160° |
| 2026-05-07 06:30 | 56.16784 | 92.52007 | 951 ft | 0 kts | 160° |
| 2026-05-07 06:31 | 56.16782 | 92.52009 | 951 ft | 2 kts | 159° |
| 2026-05-07 06:32 | 56.16753 | 92.52031 | 951 ft | 7 kts | 157° |
| 2026-05-07 06:32 | 56.16702 | 92.52052 | 952 ft | 7 kts | 184° |
| 2026-05-07 06:32 | 56.16670 | 92.52028 | 952 ft | 4 kts | 223° |
| 2026-05-07 06:32 | 56.16663 | 92.51978 | 952 ft | 6 kts | 271° |
| 2026-05-07 06:33 | 56.16671 | 92.51933 | 952 ft | 0 kts | 290° |
| 2026-05-07 06:34 | 56.16671 | 92.51932 | 952 ft | 1 kts | 290° |
| 2026-05-07 06:34 | 56.16708 | 92.51777 | 953 ft | 34 kts | 294° |
| 2026-05-07 06:34 | 56.16904 | 92.50988 | 953 ft | 102 kts | 294° |
| 2026-05-07 06:34 | 56.17249 | 92.49495 | 951 ft | 155 kts | 293° |
| 2026-05-07 06:35 | 56.17718 | 92.47521 | 1086 ft | 185 kts | 291° |
| 2026-05-07 06:35 | 56.18145 | 92.45521 | 1631 ft | 191 kts | 290° |
| 2026-05-07 06:35 | 56.18592 | 92.43267 | 2290 ft | 198 kts | 291° |
| 2026-05-07 06:35 | 56.19061 | 92.40820 | 2823 ft | 217 kts | 291° |
| 2026-05-07 06:36 | 56.19558 | 92.38169 | 3527 ft | 229 kts | 290° |
| 2026-05-07 06:36 | 56.20122 | 92.35438 | 4170 ft | 242 kts | 295° |
| 2026-05-07 06:36 | 56.20877 | 92.32542 | 4579 ft | 259 kts | 298° |
| 2026-05-07 06:36 | 56.21704 | 92.29697 | 5521 ft | 256 kts | 300° |
| 2026-05-07 06:37 | 56.22587 | 92.26924 | 6431 ft | 255 kts | 302° |
| 2026-05-07 06:37 | 56.23317 | 92.23969 | 7060 ft | 266 kts | 279° |
| 2026-05-07 06:37 | 56.23073 | 92.20667 | 7668 ft | 276 kts | 246° |
| 2026-05-07 06:37 | 56.21803 | 92.18062 | 8288 ft | 286 kts | 212° |
| 2026-05-07 06:38 | 56.19887 | 92.17059 | 8938 ft | 295 kts | 180° |
| 2026-05-07 06:38 | 56.17912 | 92.18028 | 9593 ft | 300 kts | 147° |
| 2026-05-07 06:38 | 56.16413 | 92.20624 | 10170 ft | 305 kts | 127° |
| 2026-05-07 06:38 | 56.15040 | 92.23714 | 10315 ft | 328 kts | 127° |
| 2026-05-07 06:39 | 56.13577 | 92.27019 | 10438 ft | 349 kts | 128° |
| 2026-05-07 06:39 | 56.12003 | 92.30477 | 10662 ft | 365 kts | 134° |
| 2026-05-07 06:39 | 56.09981 | 92.33264 | 11169 ft | 371 kts | 150° |
| 2026-05-07 06:39 | 56.07727 | 92.35564 | 11758 ft | 374 kts | 151° |
| 2026-05-07 06:40 | 56.05483 | 92.37853 | 12354 ft | 378 kts | 150° |
| 2026-05-07 06:40 | 56.03188 | 92.40198 | 12943 ft | 381 kts | 150° |
| 2026-05-07 06:40 | 56.00877 | 92.42560 | 13521 ft | 385 kts | 150° |
| 2026-05-07 06:40 | 55.98547 | 92.44969 | 14051 ft | 389 kts | 148° |
| 2026-05-07 06:41 | 55.96403 | 92.47926 | 14584 ft | 391 kts | 136° |
| 2026-05-07 06:41 | 55.94608 | 92.51586 | 15091 ft | 394 kts | 124° |
| 2026-05-07 06:41 | 55.93238 | 92.55825 | 15630 ft | 396 kts | 113° |
| 2026-05-07 06:41 | 55.92224 | 92.60395 | 16156 ft | 398 kts | 110° |
| 2026-05-07 06:42 | 55.91224 | 92.65007 | 16690 ft | 400 kts | 110° |
| 2026-05-07 06:42 | 55.90212 | 92.69647 | 17206 ft | 403 kts | 110° |
| 2026-05-07 06:42 | 55.89188 | 92.74311 | 17735 ft | 405 kts | 110° |
| 2026-05-07 06:42 | 55.88156 | 92.78997 | 18250 ft | 408 kts | 111° |
| 2026-05-07 06:43 | 55.87115 | 92.83716 | 18693 ft | 410 kts | 111° |
| 2026-05-07 06:43 | 55.86070 | 92.88457 | 19151 ft | 413 kts | 111° |
| 2026-05-07 06:43 | 55.85017 | 92.93226 | 19606 ft | 415 kts | 111° |
| 2026-05-07 06:43 | 55.83955 | 92.98023 | 20050 ft | 417 kts | 111° |
| 2026-05-07 06:44 | 55.82889 | 93.02832 | 20475 ft | 419 kts | 111° |
| 2026-05-07 06:44 | 55.81812 | 93.07675 | 20908 ft | 422 kts | 111° |
| 2026-05-07 06:44 | 55.80727 | 93.12533 | 21317 ft | 424 kts | 111° |
| 2026-05-07 06:44 | 55.79634 | 93.17414 | 21722 ft | 426 kts | 111° |
| 2026-05-07 06:45 | 55.78533 | 93.22317 | 22131 ft | 428 kts | 111° |
| 2026-05-07 06:45 | 55.77437 | 93.27178 | 22524 ft | 431 kts | 111° |
| 2026-05-07 06:45 | 55.76325 | 93.32132 | 22893 ft | 433 kts | 110° |
| 2026-05-07 06:45 | 55.75478 | 93.37255 | 23247 ft | 434 kts | 100° |
| 2026-05-07 06:46 | 55.75112 | 93.42585 | 23585 ft | 435 kts | 91° |
| 2026-05-07 06:46 | 55.75234 | 93.47952 | 23871 ft | 436 kts | 82° |
| 2026-05-07 06:46 | 55.75675 | 93.53289 | 24158 ft | 438 kts | 80° |
| 2026-05-07 06:46 | 55.76123 | 93.58650 | 24440 ft | 440 kts | 80° |
| 2026-05-07 06:47 | 55.76570 | 93.64038 | 24770 ft | 442 kts | 81° |
| 2026-05-07 06:47 | 55.77017 | 93.69465 | 25095 ft | 445 kts | 81° |
| 2026-05-07 06:47 | 55.77463 | 93.74910 | 25399 ft | 447 kts | 81° |
| 2026-05-07 06:47 | 55.77906 | 93.80378 | 25675 ft | 448 kts | 81° |
| 2026-05-07 06:48 | 55.78346 | 93.85877 | 25929 ft | 450 kts | 81° |
| 2026-05-07 06:48 | 55.78784 | 93.91387 | 26186 ft | 452 kts | 81° |
| 2026-05-07 06:48 | 55.79223 | 93.96932 | 26457 ft | 454 kts | 81° |
| 2026-05-07 06:48 | 55.79661 | 94.02485 | 26704 ft | 455 kts | 81° |
| 2026-05-07 06:49 | 55.80100 | 94.08076 | 26942 ft | 457 kts | 81° |
| 2026-05-07 06:49 | 55.80537 | 94.13676 | 27169 ft | 458 kts | 81° |
| 2026-05-07 06:49 | 55.80975 | 94.19303 | 27381 ft | 460 kts | 81° |
| 2026-05-07 06:49 | 55.81409 | 94.24944 | 27592 ft | 462 kts | 81° |
| 2026-05-07 06:50 | 55.81841 | 94.30616 | 27873 ft | 464 kts | 81° |
| 2026-05-07 06:50 | 55.82270 | 94.36312 | 28178 ft | 466 kts | 82° |
| 2026-05-07 06:50 | 55.82694 | 94.42032 | 28433 ft | 467 kts | 82° |
| 2026-05-07 06:50 | 55.83113 | 94.47764 | 28630 ft | 469 kts | 82° |
| 2026-05-07 06:51 | 55.83531 | 94.53521 | 28837 ft | 469 kts | 82° |
| 2026-05-07 06:51 | 55.83947 | 94.59277 | 29094 ft | 468 kts | 82° |
| 2026-05-07 06:51 | 55.84358 | 94.65013 | 29344 ft | 467 kts | 82° |
| 2026-05-07 06:51 | 55.84765 | 94.70746 | 29603 ft | 467 kts | 82° |
| 2026-05-07 06:52 | 55.85163 | 94.76402 | 29856 ft | 466 kts | 82° |
| 2026-05-07 06:52 | 55.85561 | 94.82127 | 30092 ft | 466 kts | 82° |
| 2026-05-07 06:52 | 55.85958 | 94.87847 | 30287 ft | 466 kts | 82° |
| 2026-05-07 06:52 | 55.86357 | 94.93572 | 30475 ft | 466 kts | 82° |
| 2026-05-07 06:53 | 55.86756 | 94.99301 | 30664 ft | 466 kts | 82° |
| 2026-05-07 06:53 | 55.87152 | 95.05030 | 30848 ft | 466 kts | 83° |
| 2026-05-07 06:53 | 55.87536 | 95.10752 | 31034 ft | 466 kts | 83° |
| 2026-05-07 06:53 | 55.87915 | 95.16488 | 31218 ft | 466 kts | 83° |
| 2026-05-07 06:54 | 55.88296 | 95.22222 | 31407 ft | 466 kts | 83° |
| 2026-05-07 06:54 | 55.88679 | 95.27961 | 31589 ft | 466 kts | 83° |
| 2026-05-07 06:54 | 55.89059 | 95.33689 | 31774 ft | 466 kts | 83° |
| 2026-05-07 06:54 | 55.89439 | 95.39431 | 31959 ft | 467 kts | 83° |
| 2026-05-07 06:55 | 55.89817 | 95.45170 | 32134 ft | 467 kts | 83° |
| 2026-05-07 06:55 | 55.90191 | 95.50920 | 32300 ft | 467 kts | 83° |
| 2026-05-07 06:55 | 55.90558 | 95.56669 | 32484 ft | 467 kts | 83° |
| 2026-05-07 06:55 | 55.90918 | 95.62433 | 32657 ft | 468 kts | 83° |
| 2026-05-07 06:56 | 55.91274 | 95.68196 | 32840 ft | 468 kts | 83° |
| 2026-05-07 06:56 | 55.91626 | 95.73965 | 32922 ft | 468 kts | 83° |
| 2026-05-07 06:56 | 55.92335 | 95.85491 | 32925 ft | 468 kts | 83° |
| 2026-05-07 06:57 | 55.93049 | 95.97012 | 32927 ft | 468 kts | 84° |
| 2026-05-07 06:57 | 55.93747 | 96.08548 | 32923 ft | 468 kts | 84° |
| 2026-05-07 06:58 | 55.94419 | 96.20095 | 32920 ft | 468 kts | 84° |
| 2026-05-07 06:58 | 55.95085 | 96.31641 | 32916 ft | 468 kts | 84° |
| 2026-05-07 06:59 | 55.95748 | 96.43119 | 32913 ft | 468 kts | 84° |
| 2026-05-07 06:59 | 55.96404 | 96.54671 | 32909 ft | 468 kts | 85° |
| 2026-05-07 07:00 | 55.97039 | 96.66218 | 32908 ft | 468 kts | 85° |
| 2026-05-07 07:00 | 55.97666 | 96.77776 | 32906 ft | 468 kts | 85° |
| 2026-05-07 07:01 | 55.98283 | 96.89343 | 32900 ft | 468 kts | 86° |
| 2026-05-07 07:01 | 55.98880 | 97.00911 | 32903 ft | 468 kts | 86° |
| 2026-05-07 07:02 | 55.99473 | 97.12481 | 32904 ft | 468 kts | 86° |
| 2026-05-07 07:02 | 56.00060 | 97.24051 | 32906 ft | 468 kts | 86° |
| 2026-05-07 07:03 | 56.00633 | 97.35620 | 32902 ft | 467 kts | 86° |
| 2026-05-07 07:03 | 56.01195 | 97.47179 | 32902 ft | 467 kts | 86° |
| 2026-05-07 07:04 | 56.01740 | 97.58663 | 32900 ft | 467 kts | 86° |
| 2026-05-07 07:04 | 56.02271 | 97.70225 | 32900 ft | 467 kts | 86° |
| 2026-05-07 07:05 | 56.02795 | 97.81782 | 32904 ft | 466 kts | 86° |
| 2026-05-07 07:05 | 56.03314 | 97.93344 | 32902 ft | 466 kts | 86° |
| 2026-05-07 07:06 | 56.03737 | 98.02946 | 32903 ft | 466 kts | 87° |
| 2026-05-07 07:06 | 56.04299 | 98.16458 | 32899 ft | 466 kts | 87° |
| 2026-05-07 07:07 | 56.04764 | 98.28014 | 32901 ft | 466 kts | 87° |
| 2026-05-07 07:07 | 56.05205 | 98.39573 | 32898 ft | 466 kts | 87° |
| 2026-05-07 07:08 | 56.05648 | 98.51143 | 32897 ft | 466 kts | 87° |
| 2026-05-07 07:08 | 56.06081 | 98.62634 | 32895 ft | 466 kts | 87° |
| 2026-05-07 07:09 | 56.06436 | 98.72333 | 32899 ft | 466 kts | 87° |
| 2026-05-07 07:09 | 56.06909 | 98.85800 | 32894 ft | 467 kts | 87° |
| 2026-05-07 07:10 | 56.07310 | 98.97389 | 32894 ft | 467 kts | 87° |
| 2026-05-07 07:10 | 56.07705 | 99.09000 | 32897 ft | 467 kts | 87° |
| 2026-05-07 07:11 | 56.08096 | 99.20607 | 32894 ft | 468 kts | 87° |
| 2026-05-07 07:11 | 56.08504 | 99.30255 | 32889 ft | 468 kts | 81° |
| 2026-05-07 07:12 | 56.10158 | 99.43548 | 32900 ft | 468 kts | 76° |
| 2026-05-07 07:12 | 56.11637 | 99.54915 | 32903 ft | 469 kts | 77° |
| 2026-05-07 07:13 | 56.13103 | 99.66296 | 32894 ft | 469 kts | 77° |
| 2026-05-07 07:13 | 56.14544 | 99.77622 | 32896 ft | 469 kts | 77° |
| 2026-05-07 07:14 | 56.15984 | 99.89040 | 32895 ft | 470 kts | 77° |
| 2026-05-07 07:14 | 56.17417 | 100.00474 | 32892 ft | 470 kts | 76° |
| 2026-05-07 07:15 | 56.18602 | 100.09981 | 32893 ft | 470 kts | 77° |
| 2026-05-07 07:15 | 56.20253 | 100.23382 | 32889 ft | 470 kts | 77° |
| 2026-05-07 07:16 | 56.21659 | 100.34853 | 32893 ft | 471 kts | 77° |
| 2026-05-07 07:16 | 56.22822 | 100.44405 | 32890 ft | 471 kts | 77° |
| 2026-05-07 07:17 | 56.24450 | 100.57851 | 32886 ft | 471 kts | 76° |
| 2026-05-07 07:17 | 56.25598 | 100.67417 | 32881 ft | 471 kts | 76° |
| 2026-05-07 07:18 | 56.26968 | 100.78943 | 32881 ft | 471 kts | 76° |
| 2026-05-07 07:18 | 56.28328 | 100.90482 | 32878 ft | 471 kts | 76° |
| 2026-05-07 07:19 | 56.29887 | 101.03900 | 32872 ft | 471 kts | 76° |
| 2026-05-07 07:19 | 56.31009 | 101.13587 | 32881 ft | 471 kts | 76° |
| 2026-05-07 07:20 | 56.32347 | 101.25145 | 32894 ft | 472 kts | 76° |
| 2026-05-07 07:20 | 56.33652 | 101.36648 | 32901 ft | 472 kts | 76° |
| 2026-05-07 07:21 | 56.34952 | 101.48234 | 32909 ft | 472 kts | 76° |
| 2026-05-07 07:21 | 56.36248 | 101.59832 | 32910 ft | 472 kts | 76° |
| 2026-05-07 07:22 | 56.37172 | 101.71550 | 32911 ft | 474 kts | 88° |
| 2026-05-07 07:22 | 56.37036 | 101.83464 | 32911 ft | 475 kts | 89° |
| 2026-05-07 07:23 | 56.36897 | 101.95380 | 32905 ft | 475 kts | 89° |
| 2026-05-07 07:23 | 56.36743 | 102.07302 | 32899 ft | 476 kts | 89° |
| 2026-05-07 07:24 | 56.36572 | 102.19232 | 32893 ft | 476 kts | 89° |
| 2026-05-07 07:24 | 56.36388 | 102.31170 | 32894 ft | 476 kts | 90° |
| 2026-05-07 07:25 | 56.36082 | 102.49080 | 32892 ft | 476 kts | 90° |
| 2026-05-07 07:26 | 56.35869 | 102.61014 | 32893 ft | 476 kts | 89° |
| 2026-05-07 07:26 | 56.35646 | 102.72961 | 32893 ft | 476 kts | 90° |
| 2026-05-07 07:27 | 56.35416 | 102.84812 | 32896 ft | 476 kts | 89° |
| 2026-05-07 07:27 | 56.35178 | 102.96746 | 32897 ft | 476 kts | 90° |
| 2026-05-07 07:28 | 56.34913 | 103.08678 | 32899 ft | 476 kts | 90° |
| 2026-05-07 07:28 | 56.34640 | 103.20601 | 32905 ft | 476 kts | 90° |
| 2026-05-07 07:29 | 56.34363 | 103.32498 | 32907 ft | 475 kts | 90° |
| 2026-05-07 07:29 | 56.34069 | 103.44388 | 32906 ft | 474 kts | 90° |
| 2026-05-07 07:30 | 56.33771 | 103.56254 | 32910 ft | 474 kts | 90° |
| 2026-05-07 07:30 | 56.33475 | 103.68108 | 32909 ft | 473 kts | 90° |
| 2026-05-07 07:31 | 56.33174 | 103.79931 | 32912 ft | 472 kts | 90° |
| 2026-05-07 07:31 | 56.32865 | 103.91662 | 32906 ft | 471 kts | 90° |
| 2026-05-07 07:32 | 56.32535 | 104.03452 | 32909 ft | 471 kts | 90° |
| 2026-05-07 07:32 | 56.32194 | 104.15218 | 32909 ft | 470 kts | 91° |
| 2026-05-07 07:33 | 56.31826 | 104.26960 | 32912 ft | 469 kts | 91° |
| 2026-05-07 07:33 | 56.31447 | 104.38697 | 32912 ft | 469 kts | 91° |
| 2026-05-07 07:34 | 56.31056 | 104.50399 | 32913 ft | 468 kts | 91° |
| 2026-05-07 07:34 | 56.30656 | 104.62082 | 32915 ft | 467 kts | 91° |
| 2026-05-07 07:35 | 56.30251 | 104.73748 | 32919 ft | 466 kts | 91° |
| 2026-05-07 07:35 | 56.29836 | 104.85407 | 32916 ft | 466 kts | 91° |
| 2026-05-07 07:36 | 56.29413 | 104.97046 | 32915 ft | 466 kts | 92° |
| 2026-05-07 07:36 | 56.28973 | 105.08681 | 32914 ft | 465 kts | 92° |
| 2026-05-07 07:37 | 56.28511 | 105.20280 | 32915 ft | 465 kts | 92° |
| 2026-05-07 07:37 | 56.28046 | 105.31883 | 32912 ft | 464 kts | 92° |
| 2026-05-07 07:38 | 56.27581 | 105.43391 | 32908 ft | 464 kts | 92° |
| 2026-05-07 07:38 | 56.27105 | 105.54960 | 32904 ft | 464 kts | 92° |
| 2026-05-07 07:39 | 56.26615 | 105.66518 | 32903 ft | 463 kts | 92° |
| 2026-05-07 07:39 | 56.26104 | 105.78072 | 32900 ft | 463 kts | 92° |
| 2026-05-07 07:40 | 56.25595 | 105.89637 | 32901 ft | 464 kts | 92° |
| 2026-05-07 07:40 | 56.25079 | 106.01193 | 32900 ft | 464 kts | 92° |
| 2026-05-07 07:41 | 56.24544 | 106.12745 | 32900 ft | 464 kts | 92° |
| 2026-05-07 07:41 | 56.24003 | 106.24301 | 32900 ft | 464 kts | 92° |
| 2026-05-07 07:42 | 56.23442 | 106.35855 | 32906 ft | 464 kts | 92° |
| 2026-05-07 07:42 | 56.22873 | 106.47414 | 32913 ft | 465 kts | 92° |
| 2026-05-07 07:43 | 56.22305 | 106.58992 | 32917 ft | 465 kts | 92° |
| 2026-05-07 07:43 | 56.21712 | 106.70552 | 32921 ft | 465 kts | 93° |
| 2026-05-07 07:44 | 56.21099 | 106.82124 | 32923 ft | 465 kts | 93° |
| 2026-05-07 07:44 | 56.20499 | 106.93605 | 32925 ft | 465 kts | 93° |
| 2026-05-07 07:45 | 56.19881 | 107.05172 | 32925 ft | 465 kts | 93° |
| 2026-05-07 07:45 | 56.19237 | 107.16720 | 32929 ft | 465 kts | 93° |
| 2026-05-07 07:46 | 56.18690 | 107.26338 | 32932 ft | 465 kts | 93° |
| 2026-05-07 07:46 | 56.17929 | 107.39839 | 32933 ft | 465 kts | 93° |
| 2026-05-07 07:47 | 56.17269 | 107.51380 | 32943 ft | 465 kts | 93° |
| 2026-05-07 07:47 | 56.16599 | 107.62920 | 32938 ft | 465 kts | 93° |
| 2026-05-07 07:48 | 56.15929 | 107.74449 | 32952 ft | 465 kts | 94° |
| 2026-05-07 07:48 | 56.15227 | 107.85973 | 32947 ft | 464 kts | 94° |
| 2026-05-07 07:49 | 56.14506 | 107.97477 | 32962 ft | 464 kts | 94° |
| 2026-05-07 07:49 | 56.13796 | 108.08901 | 32955 ft | 464 kts | 94° |
| 2026-05-07 07:50 | 56.13074 | 108.20401 | 32959 ft | 464 kts | 94° |
| 2026-05-07 07:50 | 56.12343 | 108.31891 | 32971 ft | 464 kts | 94° |
| 2026-05-07 07:51 | 56.11602 | 108.43381 | 32972 ft | 464 kts | 94° |
| 2026-05-07 07:51 | 56.10842 | 108.54846 | 32970 ft | 463 kts | 94° |
| 2026-05-07 07:52 | 56.10073 | 108.66308 | 32981 ft | 463 kts | 94° |
| 2026-05-07 07:52 | 56.09287 | 108.77760 | 32988 ft | 463 kts | 95° |
| 2026-05-07 07:53 | 56.08630 | 108.87263 | 32996 ft | 463 kts | 95° |
| 2026-05-07 07:53 | 56.07708 | 109.00618 | 33005 ft | 462 kts | 95° |
| 2026-05-07 07:54 | 56.06905 | 109.12019 | 33010 ft | 462 kts | 95° |
| 2026-05-07 07:54 | 56.06095 | 109.23345 | 33022 ft | 461 kts | 95° |
| 2026-05-07 07:55 | 56.05270 | 109.34716 | 33026 ft | 461 kts | 95° |
| 2026-05-07 07:55 | 56.04432 | 109.46077 | 33034 ft | 461 kts | 95° |
| 2026-05-07 07:56 | 56.03583 | 109.57431 | 33036 ft | 460 kts | 95° |
| 2026-05-07 07:56 | 56.02729 | 109.68762 | 33044 ft | 460 kts | 95° |
| 2026-05-07 07:57 | 56.01863 | 109.80083 | 33048 ft | 460 kts | 95° |
| 2026-05-07 07:57 | 56.00984 | 109.91392 | 33049 ft | 459 kts | 95° |
| 2026-05-07 07:58 | 56.00102 | 110.02693 | 33050 ft | 459 kts | 95° |
| 2026-05-07 07:58 | 55.99214 | 110.13974 | 33050 ft | 458 kts | 95° |
| 2026-05-07 07:59 | 55.98326 | 110.25175 | 33050 ft | 458 kts | 95° |
| 2026-05-07 07:59 | 55.97418 | 110.36427 | 33050 ft | 458 kts | 95° |
| 2026-05-07 08:00 | 55.96495 | 110.47685 | 33046 ft | 458 kts | 95° |
| 2026-05-07 08:00 | 55.95561 | 110.58921 | 33041 ft | 458 kts | 95° |
| 2026-05-07 08:01 | 55.94610 | 110.70157 | 33033 ft | 458 kts | 95° |
| 2026-05-07 08:01 | 55.93667 | 110.81385 | 33031 ft | 458 kts | 95° |
| 2026-05-07 08:02 | 55.92718 | 110.92613 | 33034 ft | 458 kts | 95° |
| 2026-05-07 08:02 | 55.91761 | 111.03832 | 33030 ft | 458 kts | 96° |
| 2026-05-07 08:03 | 55.90951 | 111.13150 | 33021 ft | 457 kts | 96° |
| 2026-05-07 08:03 | 55.89793 | 111.26236 | 33013 ft | 457 kts | 96° |
| 2026-05-07 08:04 | 55.88793 | 111.37425 | 33011 ft | 457 kts | 96° |
| 2026-05-07 08:04 | 55.87786 | 111.48523 | 33007 ft | 457 kts | 96° |
| 2026-05-07 08:05 | 55.86767 | 111.59689 | 33008 ft | 457 kts | 96° |
| 2026-05-07 08:05 | 55.85740 | 111.70853 | 33006 ft | 457 kts | 96° |
| 2026-05-07 08:06 | 55.84706 | 111.82002 | 33006 ft | 456 kts | 96° |
| 2026-05-07 08:06 | 55.83657 | 111.93134 | 33002 ft | 456 kts | 96° |
| 2026-05-07 08:07 | 55.82591 | 112.04259 | 33007 ft | 456 kts | 96° |
| 2026-05-07 08:07 | 55.81519 | 112.15369 | 33007 ft | 456 kts | 97° |
| 2026-05-07 08:08 | 55.80442 | 112.26478 | 33003 ft | 456 kts | 97° |
| 2026-05-07 08:08 | 55.79356 | 112.37574 | 33014 ft | 456 kts | 97° |
| 2026-05-07 08:09 | 55.78253 | 112.48663 | 33005 ft | 455 kts | 97° |
| 2026-05-07 08:09 | 55.77148 | 112.59741 | 33019 ft | 455 kts | 97° |
| 2026-05-07 08:10 | 55.76046 | 112.70729 | 33019 ft | 455 kts | 97° |
| 2026-05-07 08:10 | 55.74921 | 112.81779 | 33027 ft | 454 kts | 97° |
| 2026-05-07 08:11 | 55.73787 | 112.92800 | 33016 ft | 454 kts | 97° |
| 2026-05-07 08:11 | 55.72640 | 113.03803 | 33025 ft | 453 kts | 97° |
| 2026-05-07 08:12 | 55.71680 | 113.12937 | 33022 ft | 453 kts | 97° |
| 2026-05-07 08:12 | 55.70329 | 113.25779 | 33021 ft | 453 kts | 97° |
| 2026-05-07 08:13 | 55.69157 | 113.36749 | 33021 ft | 453 kts | 97° |
| 2026-05-07 08:13 | 55.67980 | 113.47698 | 33015 ft | 452 kts | 97° |
| 2026-05-07 08:14 | 55.66792 | 113.58635 | 33008 ft | 452 kts | 97° |
| 2026-05-07 08:14 | 55.65598 | 113.69547 | 33012 ft | 451 kts | 97° |
| 2026-05-07 08:15 | 55.64400 | 113.80376 | 33012 ft | 451 kts | 97° |
| 2026-05-07 08:15 | 55.63188 | 113.91269 | 33016 ft | 451 kts | 98° |
| 2026-05-07 08:16 | 55.61967 | 114.02148 | 33016 ft | 451 kts | 98° |
| 2026-05-07 08:16 | 55.60734 | 114.13016 | 33019 ft | 450 kts | 98° |
| 2026-05-07 08:17 | 55.59490 | 114.23865 | 33021 ft | 450 kts | 98° |
| 2026-05-07 08:17 | 55.58453 | 114.32883 | 33019 ft | 450 kts | 98° |
| 2026-05-07 08:18 | 55.57196 | 114.43717 | 33018 ft | 450 kts | 98° |
| 2026-05-07 08:18 | 55.55722 | 114.56301 | 33013 ft | 450 kts | 98° |
| 2026-05-07 08:19 | 55.54655 | 114.65364 | 33008 ft | 450 kts | 98° |
| 2026-05-07 08:19 | 55.53161 | 114.77926 | 33013 ft | 450 kts | 98° |
| 2026-05-07 08:20 | 55.51862 | 114.88727 | 33000 ft | 449 kts | 98° |
| 2026-05-07 08:20 | 55.50781 | 114.97683 | 33003 ft | 449 kts | 98° |
| 2026-05-07 08:21 | 55.49465 | 115.08454 | 32998 ft | 449 kts | 98° |
| 2026-05-07 08:21 | 55.48140 | 115.19207 | 32998 ft | 449 kts | 98° |
| 2026-05-07 08:22 | 55.46809 | 115.29952 | 32984 ft | 448 kts | 98° |
| 2026-05-07 08:22 | 55.45473 | 115.40682 | 32988 ft | 448 kts | 99° |
| 2026-05-07 08:23 | 55.44131 | 115.51411 | 32979 ft | 448 kts | 99° |
| 2026-05-07 08:23 | 55.42786 | 115.62050 | 32978 ft | 448 kts | 99° |
| 2026-05-07 08:24 | 55.41422 | 115.72751 | 32973 ft | 448 kts | 99° |
| 2026-05-07 08:24 | 55.40047 | 115.83458 | 32975 ft | 449 kts | 99° |
| 2026-05-07 08:25 | 55.38666 | 115.94155 | 32974 ft | 449 kts | 99° |
| 2026-05-07 08:25 | 55.37269 | 116.04850 | 32971 ft | 449 kts | 99° |
| 2026-05-07 08:26 | 55.35151 | 116.20864 | 32974 ft | 449 kts | 99° |
| 2026-05-07 08:26 | 55.33734 | 116.31535 | 32975 ft | 449 kts | 99° |
| 2026-05-07 08:27 | 55.32315 | 116.42129 | 32973 ft | 449 kts | 100° |
| 2026-05-07 08:27 | 55.30865 | 116.52779 | 32974 ft | 449 kts | 100° |
| 2026-05-07 08:28 | 55.29399 | 116.63427 | 32980 ft | 449 kts | 100° |
| 2026-05-07 08:28 | 55.27930 | 116.74064 | 32978 ft | 449 kts | 100° |
| 2026-05-07 08:29 | 55.26458 | 116.84702 | 32970 ft | 449 kts | 100° |
| 2026-05-07 08:29 | 55.24970 | 116.95320 | 32970 ft | 449 kts | 101° |
| 2026-05-07 08:30 | 55.23469 | 117.05939 | 32977 ft | 449 kts | 101° |
| 2026-05-07 08:30 | 55.21971 | 117.16551 | 32971 ft | 449 kts | 101° |
| 2026-05-07 08:31 | 55.20467 | 117.27087 | 32969 ft | 449 kts | 101° |
| 2026-05-07 08:31 | 55.18943 | 117.37681 | 32974 ft | 449 kts | 101° |
| 2026-05-07 08:32 | 55.17410 | 117.48272 | 32969 ft | 449 kts | 101° |
| 2026-05-07 08:32 | 55.15863 | 117.58857 | 32971 ft | 449 kts | 101° |
| 2026-05-07 08:33 | 55.14349 | 117.69447 | 32969 ft | 449 kts | 101° |
| 2026-05-07 08:33 | 55.12849 | 117.80039 | 32968 ft | 449 kts | 101° |
| 2026-05-07 08:34 | 55.11329 | 117.90627 | 32968 ft | 449 kts | 101° |
| 2026-05-07 08:34 | 55.09781 | 118.01194 | 32968 ft | 449 kts | 101° |
| 2026-05-07 08:35 | 55.08216 | 118.11760 | 32968 ft | 450 kts | 101° |
| 2026-05-07 08:35 | 55.06632 | 118.22234 | 32967 ft | 450 kts | 102° |
| 2026-05-07 08:36 | 55.05021 | 118.32780 | 32963 ft | 450 kts | 102° |
| 2026-05-07 08:36 | 55.03408 | 118.43313 | 32956 ft | 450 kts | 102° |
| 2026-05-07 08:37 | 55.01781 | 118.53846 | 32954 ft | 450 kts | 102° |
| 2026-05-07 08:37 | 55.00155 | 118.64379 | 32948 ft | 450 kts | 102° |
| 2026-05-07 08:38 | 54.98510 | 118.74903 | 32947 ft | 450 kts | 102° |
| 2026-05-07 08:38 | 54.96848 | 118.85405 | 32954 ft | 450 kts | 102° |
| 2026-05-07 08:39 | 54.95192 | 118.95926 | 32951 ft | 450 kts | 102° |
| 2026-05-07 08:39 | 54.93532 | 119.06440 | 32946 ft | 451 kts | 102° |
| 2026-05-07 08:40 | 54.91861 | 119.16861 | 32949 ft | 451 kts | 103° |
| 2026-05-07 08:40 | 54.90166 | 119.27357 | 32956 ft | 451 kts | 103° |
| 2026-05-07 08:41 | 54.88479 | 119.37840 | 32949 ft | 451 kts | 103° |
| 2026-05-07 08:41 | 54.86787 | 119.48317 | 32950 ft | 451 kts | 103° |
| 2026-05-07 08:42 | 54.85076 | 119.58783 | 32948 ft | 451 kts | 103° |
| 2026-05-07 08:42 | 54.83351 | 119.69239 | 32951 ft | 451 kts | 103° |
| 2026-05-07 08:43 | 54.81630 | 119.79695 | 32953 ft | 451 kts | 103° |
| 2026-05-07 08:43 | 54.79900 | 119.90144 | 32955 ft | 451 kts | 103° |
| 2026-05-07 08:44 | 54.78152 | 120.00582 | 32954 ft | 451 kts | 103° |
| 2026-05-07 08:44 | 54.76390 | 120.11010 | 32958 ft | 451 kts | 103° |
| 2026-05-07 08:45 | 54.74630 | 120.21432 | 32955 ft | 451 kts | 103° |
| 2026-05-07 08:45 | 54.72877 | 120.31784 | 32957 ft | 451 kts | 103° |
| 2026-05-07 08:46 | 54.71095 | 120.42194 | 32964 ft | 451 kts | 104° |
| 2026-05-07 08:46 | 54.69306 | 120.52586 | 32965 ft | 451 kts | 104° |
| 2026-05-07 08:47 | 54.67505 | 120.62973 | 32965 ft | 451 kts | 104° |
| 2026-05-07 08:47 | 54.65695 | 120.73350 | 32966 ft | 451 kts | 104° |
| 2026-05-07 08:48 | 54.63876 | 120.83728 | 32964 ft | 451 kts | 104° |
| 2026-05-07 08:48 | 54.62051 | 120.94091 | 32968 ft | 451 kts | 104° |
| 2026-05-07 08:49 | 54.60227 | 121.04372 | 32972 ft | 451 kts | 104° |
| 2026-05-07 08:49 | 54.58376 | 121.14720 | 32973 ft | 451 kts | 104° |
| 2026-05-07 08:50 | 54.56526 | 121.25054 | 32974 ft | 451 kts | 104° |
| 2026-05-07 08:50 | 54.54666 | 121.35376 | 32976 ft | 451 kts | 104° |
| 2026-05-07 08:51 | 54.52792 | 121.45690 | 32976 ft | 451 kts | 104° |
| 2026-05-07 08:51 | 54.50913 | 121.55991 | 32975 ft | 451 kts | 104° |
| 2026-05-07 08:52 | 54.49026 | 121.66289 | 32969 ft | 451 kts | 104° |
| 2026-05-07 08:52 | 54.47135 | 121.76570 | 32968 ft | 451 kts | 104° |
| 2026-05-07 08:53 | 54.45246 | 121.86782 | 32968 ft | 451 kts | 104° |
| 2026-05-07 08:53 | 54.43332 | 121.97059 | 32967 ft | 451 kts | 105° |
| 2026-05-07 08:54 | 54.41404 | 122.07318 | 32965 ft | 452 kts | 105° |
| 2026-05-07 08:54 | 54.39239 | 122.17449 | 32960 ft | 453 kts | 109° |
| 2026-05-07 08:55 | 54.36824 | 122.27446 | 32961 ft | 453 kts | 110° |
| 2026-05-07 08:55 | 54.34383 | 122.37416 | 32963 ft | 453 kts | 109° |
| 2026-05-07 08:56 | 54.32008 | 122.47411 | 32960 ft | 453 kts | 109° |
| 2026-05-07 08:56 | 54.29652 | 122.57426 | 32956 ft | 453 kts | 109° |
| 2026-05-07 08:57 | 54.27294 | 122.67347 | 32956 ft | 453 kts | 109° |
| 2026-05-07 08:57 | 54.24905 | 122.77318 | 32952 ft | 453 kts | 109° |
| 2026-05-07 08:58 | 54.22509 | 122.87280 | 32963 ft | 453 kts | 109° |
| 2026-05-07 08:58 | 54.20096 | 122.97221 | 32951 ft | 453 kts | 109° |
| 2026-05-07 08:59 | 54.17681 | 123.07155 | 32968 ft | 453 kts | 109° |
| 2026-05-07 08:59 | 54.15263 | 123.17076 | 32960 ft | 453 kts | 109° |
| 2026-05-07 09:00 | 54.12838 | 123.26984 | 32965 ft | 453 kts | 109° |
| 2026-05-07 09:00 | 54.10401 | 123.36880 | 32964 ft | 453 kts | 109° |
| 2026-05-07 09:01 | 54.07952 | 123.46757 | 32959 ft | 453 kts | 109° |
| 2026-05-07 09:01 | 54.05514 | 123.56542 | 32962 ft | 452 kts | 109° |
| 2026-05-07 09:02 | 54.03055 | 123.66397 | 32966 ft | 452 kts | 110° |
| 2026-05-07 09:02 | 54.00592 | 123.76234 | 32970 ft | 452 kts | 110° |
| 2026-05-07 09:03 | 53.98111 | 123.86058 | 32961 ft | 452 kts | 110° |
| 2026-05-07 09:03 | 53.95639 | 123.95870 | 32967 ft | 452 kts | 110° |
| 2026-05-07 09:04 | 53.93156 | 124.05668 | 32959 ft | 452 kts | 110° |
| 2026-05-07 09:04 | 53.90657 | 124.15445 | 32961 ft | 452 kts | 110° |
| 2026-05-07 09:05 | 53.88149 | 124.25208 | 32964 ft | 452 kts | 110° |
| 2026-05-07 09:05 | 53.85654 | 124.34892 | 32955 ft | 451 kts | 110° |
| 2026-05-07 09:06 | 53.83135 | 124.44631 | 32961 ft | 451 kts | 110° |
| 2026-05-07 09:06 | 53.80606 | 124.54348 | 32956 ft | 451 kts | 110° |
| 2026-05-07 09:07 | 53.78069 | 124.64052 | 32956 ft | 451 kts | 110° |
| 2026-05-07 09:07 | 53.75529 | 124.73747 | 32954 ft | 451 kts | 110° |
| 2026-05-07 09:08 | 53.72986 | 124.83425 | 32951 ft | 451 kts | 110° |
| 2026-05-07 09:08 | 53.70434 | 124.93095 | 32947 ft | 451 kts | 110° |
| 2026-05-07 09:09 | 53.68301 | 125.01117 | 32946 ft | 451 kts | 110° |
| 2026-05-07 09:09 | 53.65311 | 125.12315 | 32948 ft | 451 kts | 111° |
| 2026-05-07 09:10 | 53.62731 | 125.21941 | 32938 ft | 451 kts | 111° |
| 2026-05-07 09:10 | 53.60149 | 125.31559 | 32937 ft | 451 kts | 111° |
| 2026-05-07 09:11 | 53.57550 | 125.41161 | 32943 ft | 451 kts | 111° |
| 2026-05-07 09:11 | 53.54955 | 125.50750 | 32934 ft | 451 kts | 111° |
| 2026-05-07 09:12 | 53.52352 | 125.60330 | 32925 ft | 450 kts | 111° |
| 2026-05-07 09:12 | 53.49751 | 125.69825 | 32924 ft | 450 kts | 111° |
| 2026-05-07 09:13 | 53.47018 | 125.79298 | 32923 ft | 453 kts | 118° |
| 2026-05-07 09:13 | 53.43247 | 125.87824 | 32922 ft | 456 kts | 125° |
| 2026-05-07 09:14 | 53.39335 | 125.96196 | 32917 ft | 456 kts | 125° |
| 2026-05-07 09:14 | 53.35425 | 126.04559 | 32920 ft | 456 kts | 125° |
| 2026-05-07 09:15 | 53.31506 | 126.12908 | 32921 ft | 456 kts | 125° |
| 2026-05-07 09:15 | 53.27606 | 126.21183 | 32920 ft | 456 kts | 125° |
| 2026-05-07 09:16 | 53.23671 | 126.29492 | 32916 ft | 456 kts | 125° |
| 2026-05-07 09:16 | 53.19725 | 126.37783 | 32914 ft | 456 kts | 125° |
| 2026-05-07 09:17 | 53.15785 | 126.46077 | 32915 ft | 456 kts | 125° |
| 2026-05-07 09:17 | 53.11839 | 126.54358 | 32914 ft | 456 kts | 125° |
| 2026-05-07 09:18 | 53.07878 | 126.62606 | 32915 ft | 456 kts | 125° |
| 2026-05-07 09:18 | 53.04581 | 126.69449 | 32914 ft | 456 kts | 125° |
| 2026-05-07 09:19 | 53.00615 | 126.77679 | 32916 ft | 456 kts | 125° |
| 2026-05-07 09:19 | 52.96642 | 126.85893 | 32915 ft | 456 kts | 125° |
| 2026-05-07 09:20 | 52.92015 | 126.95422 | 32913 ft | 456 kts | 126° |
| 2026-05-07 09:20 | 52.88034 | 127.03602 | 32913 ft | 456 kts | 126° |
| 2026-05-07 09:21 | 52.84038 | 127.11770 | 32918 ft | 456 kts | 126° |
| 2026-05-07 09:21 | 52.80043 | 127.19928 | 32917 ft | 456 kts | 126° |
| 2026-05-07 09:22 | 52.76069 | 127.28009 | 32914 ft | 456 kts | 126° |
| 2026-05-07 09:22 | 52.72063 | 127.36132 | 32914 ft | 456 kts | 126° |
| 2026-05-07 09:23 | 52.68702 | 127.42933 | 32914 ft | 456 kts | 126° |
| 2026-05-07 09:23 | 52.64703 | 127.50965 | 32915 ft | 457 kts | 126° |
| 2026-05-07 09:24 | 52.59969 | 127.60382 | 32913 ft | 457 kts | 127° |
| 2026-05-07 09:24 | 52.56599 | 127.67057 | 32908 ft | 457 kts | 127° |
| 2026-05-07 09:25 | 52.52535 | 127.75083 | 32911 ft | 457 kts | 127° |
| 2026-05-07 09:25 | 52.48467 | 127.83092 | 32904 ft | 457 kts | 127° |
| 2026-05-07 09:26 | 52.43738 | 127.92396 | 32907 ft | 457 kts | 127° |
| 2026-05-07 09:26 | 52.39663 | 128.00384 | 32906 ft | 457 kts | 127° |
| 2026-05-07 09:27 | 52.36264 | 128.07007 | 32905 ft | 457 kts | 127° |
| 2026-05-07 09:28 | 52.30131 | 128.18946 | 32901 ft | 457 kts | 127° |
| 2026-05-07 09:28 | 52.26034 | 128.26895 | 32897 ft | 457 kts | 128° |
| 2026-05-07 09:29 | 52.21930 | 128.34826 | 32899 ft | 458 kts | 128° |
| 2026-05-07 09:29 | 52.17813 | 128.42755 | 32892 ft | 458 kts | 128° |
| 2026-05-07 09:30 | 52.13688 | 128.50666 | 32891 ft | 458 kts | 128° |
| 2026-05-07 09:30 | 52.09564 | 128.58561 | 32894 ft | 458 kts | 128° |
| 2026-05-07 09:31 | 52.05449 | 128.66399 | 32891 ft | 459 kts | 128° |
| 2026-05-07 09:31 | 52.01308 | 128.74278 | 32896 ft | 459 kts | 128° |
| 2026-05-07 09:32 | 51.97167 | 128.82149 | 32896 ft | 459 kts | 129° |
| 2026-05-07 09:32 | 51.93014 | 128.90003 | 32894 ft | 459 kts | 129° |
| 2026-05-07 09:33 | 51.88846 | 128.97828 | 32892 ft | 459 kts | 129° |
| 2026-05-07 09:33 | 51.84682 | 129.05654 | 32897 ft | 459 kts | 129° |
| 2026-05-07 09:34 | 51.80515 | 129.13469 | 32896 ft | 459 kts | 129° |
| 2026-05-07 09:34 | 51.76338 | 129.21268 | 32891 ft | 459 kts | 129° |
| 2026-05-07 09:35 | 51.72159 | 129.29048 | 32895 ft | 459 kts | 129° |
| 2026-05-07 09:35 | 51.67968 | 129.36818 | 32900 ft | 459 kts | 130° |
| 2026-05-07 09:36 | 51.63801 | 129.44525 | 32886 ft | 459 kts | 130° |
| 2026-05-07 09:36 | 51.59603 | 129.52277 | 32890 ft | 459 kts | 130° |
| 2026-05-07 09:37 | 51.55401 | 129.60015 | 32881 ft | 460 kts | 130° |
| 2026-05-07 09:37 | 51.51180 | 129.67735 | 32890 ft | 460 kts | 130° |
| 2026-05-07 09:38 | 51.46951 | 129.75445 | 32878 ft | 460 kts | 130° |
| 2026-05-07 09:38 | 51.42724 | 129.83146 | 32877 ft | 461 kts | 130° |
| 2026-05-07 09:39 | 51.38485 | 129.90849 | 32878 ft | 461 kts | 130° |
| 2026-05-07 09:39 | 51.34266 | 129.98489 | 32878 ft | 461 kts | 131° |
| 2026-05-07 09:40 | 51.29986 | 130.06131 | 32877 ft | 461 kts | 131° |
| 2026-05-07 09:40 | 51.25644 | 130.13686 | 32877 ft | 462 kts | 132° |
| 2026-05-07 09:41 | 51.21287 | 130.21228 | 32881 ft | 462 kts | 132° |
| 2026-05-07 09:41 | 51.16940 | 130.28781 | 32877 ft | 462 kts | 132° |
| 2026-05-07 09:42 | 51.12596 | 130.36338 | 32878 ft | 463 kts | 132° |
| 2026-05-07 09:42 | 51.08232 | 130.43871 | 32874 ft | 463 kts | 133° |
| 2026-05-07 09:43 | 51.03861 | 130.51393 | 32875 ft | 463 kts | 133° |
| 2026-05-07 09:43 | 50.99487 | 130.58912 | 32874 ft | 463 kts | 133° |
| 2026-05-07 09:44 | 50.95139 | 130.66368 | 32874 ft | 464 kts | 133° |
| 2026-05-07 09:44 | 50.90750 | 130.73869 | 32871 ft | 464 kts | 133° |
| 2026-05-07 09:45 | 50.86345 | 130.81353 | 32871 ft | 465 kts | 133° |
| 2026-05-07 09:45 | 50.81935 | 130.88836 | 32869 ft | 465 kts | 133° |
| 2026-05-07 09:46 | 50.77516 | 130.96307 | 32867 ft | 465 kts | 134° |
| 2026-05-07 09:46 | 50.73087 | 131.03774 | 32864 ft | 466 kts | 134° |
| 2026-05-07 09:47 | 50.68658 | 131.11227 | 32869 ft | 466 kts | 134° |
| 2026-05-07 09:47 | 50.64215 | 131.18664 | 32868 ft | 466 kts | 134° |
| 2026-05-07 09:48 | 50.62741 | 131.21123 | 32864 ft | 466 kts | 134° |
| 2026-05-07 09:48 | 50.55355 | 131.33446 | 32864 ft | 466 kts | 134° |
| 2026-05-07 09:49 | 50.50906 | 131.40842 | 32863 ft | 465 kts | 134° |
| 2026-05-07 09:49 | 50.46447 | 131.48210 | 32873 ft | 465 kts | 134° |
| 2026-05-07 09:50 | 50.41992 | 131.55572 | 32860 ft | 465 kts | 134° |
| 2026-05-07 09:50 | 50.37531 | 131.62923 | 32858 ft | 465 kts | 134° |
| 2026-05-07 09:51 | 50.33066 | 131.70251 | 32856 ft | 465 kts | 135° |
| 2026-05-07 09:51 | 50.28627 | 131.77514 | 32858 ft | 465 kts | 135° |
| 2026-05-07 09:52 | 50.24156 | 131.84807 | 32856 ft | 465 kts | 135° |
| 2026-05-07 09:52 | 50.19681 | 131.92099 | 32849 ft | 465 kts | 135° |
| 2026-05-07 09:53 | 50.15204 | 131.99381 | 32850 ft | 465 kts | 135° |
| 2026-05-07 09:53 | 50.10718 | 132.06632 | 32850 ft | 465 kts | 135° |
| 2026-05-07 09:54 | 50.06214 | 132.13875 | 32846 ft | 465 kts | 135° |
| 2026-05-07 09:54 | 50.02089 | 132.21612 | 32838 ft | 467 kts | 123° |
| 2026-05-07 09:55 | 49.98674 | 132.30213 | 32845 ft | 468 kts | 123° |
| 2026-05-07 09:55 | 49.95227 | 132.38791 | 32845 ft | 468 kts | 123° |
| 2026-05-07 09:56 | 49.91794 | 132.47305 | 32848 ft | 469 kts | 123° |
| 2026-05-07 09:56 | 49.88328 | 132.55875 | 32851 ft | 469 kts | 123° |
| 2026-05-07 09:57 | 49.84856 | 132.64448 | 32841 ft | 470 kts | 124° |
| 2026-05-07 09:57 | 49.81373 | 132.73007 | 32849 ft | 470 kts | 124° |
| 2026-05-07 09:58 | 49.77879 | 132.81571 | 32847 ft | 471 kts | 124° |
| 2026-05-07 09:58 | 49.74384 | 132.90141 | 32844 ft | 471 kts | 124° |
| 2026-05-07 09:59 | 49.70870 | 132.98699 | 32835 ft | 472 kts | 124° |
| 2026-05-07 09:59 | 49.67342 | 133.07241 | 32835 ft | 472 kts | 124° |
| 2026-05-07 10:00 | 49.63806 | 133.15790 | 32724 ft | 474 kts | 124° |
| 2026-05-07 10:00 | 49.62035 | 133.20065 | 32456 ft | 473 kts | 124° |
| 2026-05-07 10:00 | 49.60265 | 133.24332 | 32189 ft | 473 kts | 124° |
| 2026-05-07 10:00 | 49.58492 | 133.28596 | 31936 ft | 472 kts | 124° |
| 2026-05-07 10:01 | 49.56718 | 133.32854 | 31673 ft | 472 kts | 124° |
| 2026-05-07 10:01 | 49.54967 | 133.37051 | 31423 ft | 472 kts | 124° |
| 2026-05-07 10:01 | 49.53193 | 133.41299 | 31172 ft | 472 kts | 124° |
| 2026-05-07 10:01 | 49.51417 | 133.45546 | 30920 ft | 472 kts | 123° |
| 2026-05-07 10:02 | 49.49643 | 133.49781 | 30686 ft | 472 kts | 124° |
| 2026-05-07 10:02 | 49.47863 | 133.54019 | 30436 ft | 472 kts | 124° |
| 2026-05-07 10:02 | 49.46683 | 133.56826 | 30276 ft | 471 kts | 124° |
| 2026-05-07 10:02 | 49.44305 | 133.62468 | 29431 ft | 469 kts | 124° |
| 2026-05-07 10:03 | 49.42541 | 133.66642 | 28801 ft | 462 kts | 124° |
| 2026-05-07 10:03 | 49.40805 | 133.70754 | 28193 ft | 456 kts | 124° |
| 2026-05-07 10:03 | 49.39090 | 133.74823 | 27584 ft | 451 kts | 124° |
| 2026-05-07 10:03 | 49.37969 | 133.77489 | 27186 ft | 448 kts | 124° |
| 2026-05-07 10:04 | 49.35726 | 133.82817 | 26393 ft | 442 kts | 124° |
| 2026-05-07 10:04 | 49.34065 | 133.86752 | 25814 ft | 437 kts | 124° |
| 2026-05-07 10:04 | 49.32417 | 133.90648 | 25237 ft | 433 kts | 124° |
| 2026-05-07 10:04 | 49.30780 | 133.94508 | 24670 ft | 430 kts | 124° |
| 2026-05-07 10:05 | 49.29157 | 133.98327 | 24104 ft | 426 kts | 124° |
| 2026-05-07 10:05 | 49.27546 | 134.02109 | 23567 ft | 422 kts | 124° |
| 2026-05-07 10:05 | 49.25966 | 134.05808 | 22968 ft | 419 kts | 124° |
| 2026-05-07 10:05 | 49.24385 | 134.09516 | 22492 ft | 413 kts | 124° |
| 2026-05-07 10:06 | 49.22825 | 134.13173 | 21990 ft | 408 kts | 124° |
| 2026-05-07 10:06 | 49.21781 | 134.15616 | 21686 ft | 405 kts | 124° |
| 2026-05-07 10:06 | 49.19752 | 134.20352 | 21089 ft | 399 kts | 124° |
| 2026-05-07 10:06 | 49.18236 | 134.23882 | 20640 ft | 395 kts | 124° |
| 2026-05-07 10:07 | 49.16734 | 134.27378 | 20197 ft | 391 kts | 124° |
| 2026-05-07 10:07 | 49.15246 | 134.30837 | 19733 ft | 388 kts | 125° |
| 2026-05-07 10:07 | 49.13768 | 134.34270 | 19297 ft | 385 kts | 125° |
| 2026-05-07 10:07 | 49.12302 | 134.37676 | 18843 ft | 383 kts | 125° |
| 2026-05-07 10:08 | 49.10841 | 134.41058 | 18383 ft | 381 kts | 125° |
| 2026-05-07 10:08 | 49.09383 | 134.44422 | 17890 ft | 379 kts | 125° |
| 2026-05-07 10:08 | 49.07948 | 134.47792 | 17395 ft | 377 kts | 123° |
| 2026-05-07 10:08 | 49.06621 | 134.51226 | 16935 ft | 375 kts | 120° |
| 2026-05-07 10:09 | 49.05376 | 134.54702 | 16442 ft | 373 kts | 119° |
| 2026-05-07 10:09 | 49.04170 | 134.58192 | 15974 ft | 371 kts | 118° |
| 2026-05-07 10:09 | 49.02988 | 134.61625 | 15500 ft | 370 kts | 118° |
| 2026-05-07 10:09 | 49.01783 | 134.65084 | 15022 ft | 369 kts | 118° |
| 2026-05-07 10:10 | 49.00569 | 134.68517 | 14543 ft | 368 kts | 119° |
| 2026-05-07 10:10 | 48.99344 | 134.71925 | 14063 ft | 367 kts | 119° |
| 2026-05-07 10:10 | 48.98115 | 134.75316 | 13571 ft | 366 kts | 119° |
| 2026-05-07 10:10 | 48.96883 | 134.78701 | 13053 ft | 364 kts | 119° |
| 2026-05-07 10:11 | 48.95659 | 134.82060 | 12557 ft | 362 kts | 119° |
| 2026-05-07 10:11 | 48.94854 | 134.84270 | 12230 ft | 360 kts | 119° |
| 2026-05-07 10:11 | 48.93835 | 134.87063 | 11961 ft | 354 kts | 119° |
| 2026-05-07 10:11 | 48.92665 | 134.90279 | 11815 ft | 342 kts | 119° |
| 2026-05-07 10:12 | 48.91533 | 134.93387 | 11673 ft | 330 kts | 119° |
| 2026-05-07 10:12 | 48.90437 | 134.96392 | 11546 ft | 319 kts | 119° |
| 2026-05-07 10:12 | 48.89378 | 134.99293 | 11413 ft | 309 kts | 120° |
| 2026-05-07 10:12 | 48.88385 | 135.02138 | 11284 ft | 300 kts | 112° |
| 2026-05-07 10:13 | 48.87936 | 135.05151 | 11156 ft | 289 kts | 90° |
| 2026-05-07 10:13 | 48.88175 | 135.08102 | 11025 ft | 276 kts | 70° |
| 2026-05-07 10:13 | 48.88910 | 135.10731 | 10721 ft | 267 kts | 62° |
| 2026-05-07 10:13 | 48.89691 | 135.13280 | 10212 ft | 265 kts | 62° |
| 2026-05-07 10:14 | 48.90461 | 135.15800 | 9795 ft | 262 kts | 62° |
| 2026-05-07 10:14 | 48.91231 | 135.18319 | 9407 ft | 263 kts | 62° |
| 2026-05-07 10:14 | 48.91997 | 135.20833 | 9073 ft | 260 kts | 62° |
| 2026-05-07 10:14 | 48.92757 | 135.23330 | 8730 ft | 260 kts | 62° |
| 2026-05-07 10:15 | 48.93511 | 135.25805 | 8398 ft | 258 kts | 62° |
| 2026-05-07 10:15 | 48.94009 | 135.27444 | 8175 ft | 257 kts | 62° |
| 2026-05-07 10:15 | 48.94963 | 135.30706 | 7831 ft | 251 kts | 68° |
| 2026-05-07 10:15 | 48.95542 | 135.33198 | 7809 ft | 251 kts | 68° |
| 2026-05-07 10:16 | 48.96122 | 135.35703 | 7813 ft | 251 kts | 68° |
| 2026-05-07 10:16 | 48.96703 | 135.38211 | 7813 ft | 251 kts | 68° |
| 2026-05-07 10:16 | 48.97272 | 135.40665 | 7809 ft | 239 kts | 68° |
| 2026-05-07 10:16 | 48.97642 | 135.42260 | 7813 ft | 236 kts | 68° |
| 2026-05-07 10:17 | 48.98196 | 135.45447 | 7815 ft | 237 kts | 83° |
| 2026-05-07 10:17 | 48.98134 | 135.47960 | 7818 ft | 239 kts | 96° |
| 2026-05-07 10:17 | 48.97931 | 135.50473 | 7816 ft | 239 kts | 95° |
| 2026-05-07 10:17 | 48.97737 | 135.52984 | 7815 ft | 239 kts | 95° |
| 2026-05-07 10:18 | 48.97610 | 135.54651 | 7816 ft | 239 kts | 95° |
| 2026-05-07 10:18 | 48.97419 | 135.57164 | 7818 ft | 239 kts | 95° |
| 2026-05-07 10:18 | 48.97202 | 135.59671 | 7817 ft | 239 kts | 102° |
| 2026-05-07 10:18 | 48.96362 | 135.62796 | 7819 ft | 240 kts | 123° |
| 2026-05-07 10:19 | 48.95754 | 135.64204 | 7819 ft | 240 kts | 123° |
| 2026-05-07 10:19 | 48.94532 | 135.67055 | 7821 ft | 240 kts | 123° |
| 2026-05-07 10:19 | 48.93928 | 135.68464 | 7819 ft | 240 kts | 125° |
| 2026-05-07 10:19 | 48.92763 | 135.70240 | 7823 ft | 237 kts | 151° |
| 2026-05-07 10:20 | 48.90730 | 135.71179 | 7818 ft | 230 kts | 184° |
| 2026-05-07 10:20 | 48.89179 | 135.70759 | 7587 ft | 222 kts | 208° |
| 2026-05-07 10:20 | 48.87914 | 135.69503 | 7394 ft | 215 kts | 230° |
| 2026-05-07 10:20 | 48.87215 | 135.68393 | 7269 ft | 215 kts | 230° |
| 2026-05-07 10:21 | 48.86174 | 135.66753 | 7093 ft | 216 kts | 230° |
| 2026-05-07 10:21 | 48.84789 | 135.64600 | 6839 ft | 215 kts | 230° |
| 2026-05-07 10:21 | 48.84084 | 135.63505 | 6716 ft | 215 kts | 230° |
| 2026-05-07 10:21 | 48.83056 | 135.61905 | 6534 ft | 214 kts | 230° |
| 2026-05-07 10:22 | 48.82036 | 135.60316 | 6363 ft | 206 kts | 230° |
| 2026-05-07 10:22 | 48.80848 | 135.58121 | 6113 ft | 200 kts | 239° |
| 2026-05-07 10:22 | 48.79945 | 135.56503 | 5939 ft | 202 kts | 229° |
| 2026-05-07 10:22 | 48.78930 | 135.55025 | 5764 ft | 202 kts | 227° |
| 2026-05-07 10:23 | 48.78244 | 135.54067 | 5649 ft | 202 kts | 226° |
| 2026-05-07 10:23 | 48.77208 | 135.52631 | 5478 ft | 202 kts | 226° |
| 2026-05-07 10:23 | 48.75825 | 135.50718 | 5250 ft | 201 kts | 226° |
| 2026-05-07 10:23 | 48.74788 | 135.49286 | 4982 ft | 201 kts | 226° |
| 2026-05-07 10:24 | 48.74106 | 135.48344 | 4836 ft | 200 kts | 226° |
| 2026-05-07 10:24 | 48.73081 | 135.46928 | 4748 ft | 200 kts | 226° |
| 2026-05-07 10:24 | 48.71727 | 135.45061 | 4472 ft | 194 kts | 226° |
| 2026-05-07 10:24 | 48.71072 | 135.44158 | 4324 ft | 190 kts | 226° |
| 2026-05-07 10:25 | 48.70120 | 135.42848 | 4131 ft | 178 kts | 226° |
| 2026-05-07 10:25 | 48.68933 | 135.41213 | 3828 ft | 168 kts | 226° |
| 2026-05-07 10:25 | 48.68366 | 135.40431 | 3685 ft | 166 kts | 225° |
| 2026-05-07 10:25 | 48.67518 | 135.39263 | 3482 ft | 165 kts | 225° |
| 2026-05-07 10:26 | 48.66682 | 135.38114 | 3276 ft | 160 kts | 225° |
| 2026-05-07 10:26 | 48.65871 | 135.36998 | 3091 ft | 156 kts | 225° |
| 2026-05-07 10:26 | 48.65075 | 135.35905 | 2904 ft | 154 kts | 225° |
| 2026-05-07 10:26 | 48.64285 | 135.34818 | 2722 ft | 153 kts | 225° |
| 2026-05-07 10:27 | 48.63498 | 135.33738 | 2518 ft | 152 kts | 225° |
| 2026-05-07 10:27 | 48.62715 | 135.32663 | 2347 ft | 152 kts | 225° |
| 2026-05-07 10:27 | 48.61938 | 135.31597 | 2182 ft | 151 kts | 224° |
| 2026-05-07 10:27 | 48.61164 | 135.30535 | 1982 ft | 150 kts | 224° |
| 2026-05-07 10:28 | 48.60404 | 135.29494 | 1789 ft | 149 kts | 224° |
| 2026-05-07 10:28 | 48.59647 | 135.28457 | 1612 ft | 144 kts | 224° |
| 2026-05-07 10:28 | 48.58917 | 135.27456 | 1445 ft | 141 kts | 224° |
| 2026-05-07 10:28 | 48.58195 | 135.26468 | 1281 ft | 139 kts | 224° |
| 2026-05-07 10:29 | 48.57478 | 135.25487 | 1091 ft | 139 kts | 223° |
| 2026-05-07 10:29 | 48.56757 | 135.24501 | 912 ft | 141 kts | 222° |
| 2026-05-07 10:29 | 48.56027 | 135.23502 | 737 ft | 142 kts | 221° |
| 2026-05-07 10:30 | 48.54553 | 135.21475 | 393 ft | 144 kts | 221° |
| 2026-05-07 10:30 | 48.53816 | 135.20457 | 254 ft | 142 kts | 221° |
| 2026-05-07 10:30 | 48.53139 | 135.19551 | 248 ft | 113 kts | 222° |
| 2026-05-07 10:30 | 48.52629 | 135.18868 | 247 ft | 82 kts | 221° |
| 2026-05-07 10:31 | 48.52292 | 135.18407 | 243 ft | 36 kts | 221° |
| 2026-05-07 10:31 | 48.52159 | 135.18219 | 242 ft | 19 kts | 224° |
| 2026-05-07 10:31 | 48.52112 | 135.18094 | 242 ft | 12 kts | 283° |
| 2026-05-07 10:31 | 48.52164 | 135.18000 | 243 ft | 10 kts | 310° |
| 2026-05-07 10:32 | 48.52200 | 135.17935 | 245 ft | 6 kts | 310° |
| 2026-05-07 10:32 | 48.52235 | 135.17875 | 246 ft | 11 kts | 313° |
| 2026-05-07 10:32 | 48.52304 | 135.17761 | 246 ft | 18 kts | 311° |
| 2026-05-07 10:32 | 48.52378 | 135.17636 | 246 ft | 15 kts | 312° |
| 2026-05-07 10:33 | 48.52438 | 135.17537 | 245 ft | 12 kts | 313° |
| 2026-05-07 10:33 | 48.52486 | 135.17458 | 245 ft | 2 kts | 313° |
| 2026-05-07 10:35 | 48.52503 | 135.17431 | 245 ft | 6 kts | 311° |
| 2026-05-07 10:35 | 48.52508 | 135.17379 | 245 ft | 5 kts | 258° |
| 2026-05-07 10:36 | 48.52469 | 135.17309 | 246 ft | 9 kts | 222° |
| 2026-05-07 10:36 | 48.52446 | 135.17237 | 246 ft | 7 kts | 266° |
| 2026-05-07 10:36 | 48.52465 | 135.17181 | 246 ft | 6 kts | 314° |
| 2026-05-07 10:36 | 48.52485 | 135.17148 | 246 ft | 0 kts | 311° |